sensor_id;sensor_type;location;lat;lon;timestamp;P1;durP1;ratioP1;P2;durP2;ratioP2
18162;SDS011;9206;50.994;4.538;2024-02-26T00:01:06;1.63;;;1.50;;
18162;SDS011;9206;50.994;4.538;2024-02-26T00:03:54;2.10;;;1.50;;
18162;SDS011;9206;50.994;4.538;2024-02-26T00:06:44;1.90;;;1.43;;
18162;SDS011;9206;50.994;4.538;2024-02-26T00:09:34;1.70;;;1.47;;
18162;SDS011;9206;50.994;4.538;2024-02-26T00:12:22;1.43;;;1.33;;
18162;SDS011;9206;50.994;4.538;2024-02-26T00:15:12;1.40;;;1.30;;
18162;SDS011;9206;50.994;4.538;2024-02-26T00:18:02;1.43;;;1.33;;
18162;SDS011;9206;50.994;4.538;2024-02-26T00:20:53;1.70;;;1.60;;
18162;SDS011;9206;50.994;4.538;2024-02-26T00:23:40;1.60;;;1.50;;
18162;SDS011;9206;50.994;4.538;2024-02-26T00:26:28;1.80;;;1.47;;
18162;SDS011;9206;50.994;4.538;2024-02-26T00:29:16;1.43;;;1.33;;
18162;SDS011;9206;50.994;4.538;2024-02-26T00:34:54;3.37;;;1.40;;
18162;SDS011;9206;50.994;4.538;2024-02-26T00:37:41;1.70;;;1.53;;
18162;SDS011;9206;50.994;4.538;2024-02-26T00:43:22;1.63;;;1.53;;
18162;SDS011;9206;50.994;4.538;2024-02-26T00:46:10;1.53;;;1.30;;
18162;SDS011;9206;50.994;4.538;2024-02-26T00:49:00;1.53;;;1.43;;
18162;SDS011;9206;50.994;4.538;2024-02-26T00:51:47;2.87;;;1.70;;
18162;SDS011;9206;50.994;4.538;2024-02-26T00:54:38;1.63;;;1.30;;
18162;SDS011;9206;50.994;4.538;2024-02-26T00:57:25;1.40;;;1.30;;
18162;SDS011;9206;50.994;4.538;2024-02-26T01:03:10;2.60;;;1.50;;
18162;SDS011;9206;50.994;4.538;2024-02-26T01:06:00;1.73;;;1.63;;
18162;SDS011;9206;50.994;4.538;2024-02-26T01:08:48;1.43;;;1.40;;
18162;SDS011;9206;50.994;4.538;2024-02-26T01:11:38;1.37;;;1.27;;
18162;SDS011;9206;50.994;4.538;2024-02-26T01:14:27;1.17;;;1.07;;
18162;SDS011;9206;50.994;4.538;2024-02-26T01:17:15;1.30;;;1.20;;
18162;SDS011;9206;50.994;4.538;2024-02-26T01:20:03;1.60;;;1.20;;
18162;SDS011;9206;50.994;4.538;2024-02-26T01:22:52;1.43;;;1.33;;
18162;SDS011;9206;50.994;4.538;2024-02-26T01:25:39;1.57;;;1.47;;
18162;SDS011;9206;50.994;4.538;2024-02-26T01:28:33;1.10;;;1.10;;
18162;SDS011;9206;50.994;4.538;2024-02-26T01:31:20;1.20;;;1.20;;
18162;SDS011;9206;50.994;4.538;2024-02-26T01:34:09;1.30;;;1.30;;
18162;SDS011;9206;50.994;4.538;2024-02-26T01:39:48;1.33;;;1.27;;
18162;SDS011;9206;50.994;4.538;2024-02-26T01:42:39;1.30;;;1.30;;
18162;SDS011;9206;50.994;4.538;2024-02-26T01:45:30;1.13;;;1.13;;
18162;SDS011;9206;50.994;4.538;2024-02-26T01:51:09;1.60;;;1.60;;
18162;SDS011;9206;50.994;4.538;2024-02-26T01:53:59;1.63;;;1.40;;
18162;SDS011;9206;50.994;4.538;2024-02-26T01:56:50;3.53;;;1.60;;
18162;SDS011;9206;50.994;4.538;2024-02-26T01:59:39;5.03;;;1.70;;
18162;SDS011;9206;50.994;4.538;2024-02-26T02:02:28;1.40;;;1.30;;
18162;SDS011;9206;50.994;4.538;2024-02-26T02:05:15;1.67;;;1.57;;
18162;SDS011;9206;50.994;4.538;2024-02-26T02:08:06;1.83;;;1.50;;
18162;SDS011;9206;50.994;4.538;2024-02-26T02:10:55;1.87;;;1.73;;
18162;SDS011;9206;50.994;4.538;2024-02-26T02:16:35;1.60;;;1.50;;
18162;SDS011;9206;50.994;4.538;2024-02-26T02:19:22;1.90;;;1.80;;
18162;SDS011;9206;50.994;4.538;2024-02-26T02:22:14;1.80;;;1.70;;
18162;SDS011;9206;50.994;4.538;2024-02-26T02:25:03;2.33;;;1.73;;
18162;SDS011;9206;50.994;4.538;2024-02-26T02:27:53;2.30;;;1.80;;
18162;SDS011;9206;50.994;4.538;2024-02-26T02:33:34;2.13;;;1.90;;
18162;SDS011;9206;50.994;4.538;2024-02-26T02:36:24;2.30;;;2.10;;
18162;SDS011;9206;50.994;4.538;2024-02-26T02:39:16;2.00;;;1.90;;
18162;SDS011;9206;50.994;4.538;2024-02-26T02:42:03;2.60;;;2.20;;
18162;SDS011;9206;50.994;4.538;2024-02-26T02:44:54;1.90;;;1.80;;
18162;SDS011;9206;50.994;4.538;2024-02-26T02:47:44;2.30;;;2.20;;
18162;SDS011;9206;50.994;4.538;2024-02-26T02:56:14;2.23;;;2.07;;
18162;SDS011;9206;50.994;4.538;2024-02-26T02:59:07;2.33;;;2.23;;
18162;SDS011;9206;50.994;4.538;2024-02-26T03:01:56;2.77;;;2.57;;
18162;SDS011;9206;50.994;4.538;2024-02-26T03:04:45;2.30;;;2.20;;
18162;SDS011;9206;50.994;4.538;2024-02-26T03:07:35;2.77;;;2.57;;
18162;SDS011;9206;50.994;4.538;2024-02-26T03:10:25;2.80;;;2.47;;
18162;SDS011;9206;50.994;4.538;2024-02-26T03:13:14;3.33;;;2.83;;
18162;SDS011;9206;50.994;4.538;2024-02-26T03:16:04;2.33;;;2.23;;
18162;SDS011;9206;50.994;4.538;2024-02-26T03:18:54;3.07;;;2.87;;
18162;SDS011;9206;50.994;4.538;2024-02-26T03:24:32;3.17;;;2.87;;
18162;SDS011;9206;50.994;4.538;2024-02-26T03:27:22;3.10;;;2.80;;
18162;SDS011;9206;50.994;4.538;2024-02-26T03:30:13;3.03;;;2.83;;
18162;SDS011;9206;50.994;4.538;2024-02-26T03:33:03;2.93;;;2.83;;
18162;SDS011;9206;50.994;4.538;2024-02-26T03:38:46;3.40;;;3.20;;
18162;SDS011;9206;50.994;4.538;2024-02-26T03:41:34;3.90;;;3.60;;
18162;SDS011;9206;50.994;4.538;2024-02-26T03:44:27;3.70;;;3.50;;
18162;SDS011;9206;50.994;4.538;2024-02-26T03:47:17;3.43;;;3.23;;
18162;SDS011;9206;50.994;4.538;2024-02-26T03:50:11;3.20;;;3.10;;
18162;SDS011;9206;50.994;4.538;2024-02-26T03:58:40;4.10;;;3.90;;
18162;SDS011;9206;50.994;4.538;2024-02-26T04:01:30;4.27;;;3.93;;
18162;SDS011;9206;50.994;4.538;2024-02-26T04:04:20;4.67;;;4.20;;
18162;SDS011;9206;50.994;4.538;2024-02-26T04:07:10;4.20;;;4.00;;
18162;SDS011;9206;50.994;4.538;2024-02-26T04:10:01;4.10;;;3.73;;
18162;SDS011;9206;50.994;4.538;2024-02-26T04:12:53;4.10;;;3.80;;
18162;SDS011;9206;50.994;4.538;2024-02-26T04:15:41;4.17;;;3.80;;
18162;SDS011;9206;50.994;4.538;2024-02-26T04:18:29;4.10;;;3.80;;
18162;SDS011;9206;50.994;4.538;2024-02-26T04:21:19;4.30;;;4.10;;
18162;SDS011;9206;50.994;4.538;2024-02-26T04:24:08;4.23;;;4.00;;
18162;SDS011;9206;50.994;4.538;2024-02-26T04:26:58;4.50;;;4.20;;
18162;SDS011;9206;50.994;4.538;2024-02-26T04:29:45;4.43;;;4.23;;
18162;SDS011;9206;50.994;4.538;2024-02-26T04:32:32;5.10;;;4.70;;
18162;SDS011;9206;50.994;4.538;2024-02-26T04:35:19;5.40;;;5.03;;
18162;SDS011;9206;50.994;4.538;2024-02-26T04:38:08;5.70;;;5.40;;
18162;SDS011;9206;50.994;4.538;2024-02-26T04:46:38;7.00;;;6.40;;
18162;SDS011;9206;50.994;4.538;2024-02-26T04:49:26;7.37;;;6.67;;
18162;SDS011;9206;50.994;4.538;2024-02-26T04:52:18;8.10;;;7.30;;
18162;SDS011;9206;50.994;4.538;2024-02-26T04:55:10;7.47;;;6.70;;
18162;SDS011;9206;50.994;4.538;2024-02-26T04:58:00;8.77;;;7.90;;
18162;SDS011;9206;50.994;4.538;2024-02-26T05:00:50;8.27;;;7.53;;
18162;SDS011;9206;50.994;4.538;2024-02-26T05:03:39;8.27;;;7.53;;
18162;SDS011;9206;50.994;4.538;2024-02-26T05:06:28;8.57;;;7.87;;
18162;SDS011;9206;50.994;4.538;2024-02-26T05:09:16;8.43;;;7.70;;
18162;SDS011;9206;50.994;4.538;2024-02-26T05:15:00;8.30;;;7.70;;
18162;SDS011;9206;50.994;4.538;2024-02-26T05:17:51;7.60;;;7.10;;
18162;SDS011;9206;50.994;4.538;2024-02-26T05:20:41;8.40;;;7.57;;
18162;SDS011;9206;50.994;4.538;2024-02-26T05:23:31;8.10;;;7.27;;
18162;SDS011;9206;50.994;4.538;2024-02-26T05:26:24;7.40;;;6.93;;
18162;SDS011;9206;50.994;4.538;2024-02-26T05:29:13;7.70;;;7.20;;
18162;SDS011;9206;50.994;4.538;2024-02-26T05:32:02;7.90;;;7.40;;
18162;SDS011;9206;50.994;4.538;2024-02-26T05:37:40;7.40;;;6.70;;
18162;SDS011;9206;50.994;4.538;2024-02-26T05:40:29;7.60;;;7.10;;
18162;SDS011;9206;50.994;4.538;2024-02-26T05:46:09;6.87;;;6.47;;
18162;SDS011;9206;50.994;4.538;2024-02-26T05:48:57;6.63;;;6.23;;
18162;SDS011;9206;50.994;4.538;2024-02-26T05:51:45;7.30;;;6.63;;
18162;SDS011;9206;50.994;4.538;2024-02-26T05:54:32;6.50;;;5.90;;
18162;SDS011;9206;50.994;4.538;2024-02-26T05:57:22;6.77;;;6.37;;
18162;SDS011;9206;50.994;4.538;2024-02-26T06:00:10;6.83;;;6.40;;
18162;SDS011;9206;50.994;4.538;2024-02-26T06:03:06;6.50;;;6.10;;
18162;SDS011;9206;50.994;4.538;2024-02-26T06:05:53;7.10;;;6.50;;
18162;SDS011;9206;50.994;4.538;2024-02-26T06:08:42;6.70;;;6.17;;
18162;SDS011;9206;50.994;4.538;2024-02-26T06:11:32;6.73;;;6.20;;
18162;SDS011;9206;50.994;4.538;2024-02-26T06:14:19;7.13;;;6.67;;
18162;SDS011;9206;50.994;4.538;2024-02-26T06:17:10;7.50;;;6.90;;
18162;SDS011;9206;50.994;4.538;2024-02-26T06:20:01;6.93;;;6.53;;
18162;SDS011;9206;50.994;4.538;2024-02-26T06:22:52;6.83;;;6.43;;
18162;SDS011;9206;50.994;4.538;2024-02-26T06:25:39;7.50;;;7.00;;
18162;SDS011;9206;50.994;4.538;2024-02-26T06:31:26;8.27;;;7.87;;
18162;SDS011;9206;50.994;4.538;2024-02-26T06:34:16;7.70;;;7.17;;
18162;SDS011;9206;50.994;4.538;2024-02-26T06:39:57;7.63;;;7.23;;
18162;SDS011;9206;50.994;4.538;2024-02-26T06:42:55;7.37;;;6.97;;
18162;SDS011;9206;50.994;4.538;2024-02-26T06:45:46;7.97;;;7.57;;
18162;SDS011;9206;50.994;4.538;2024-02-26T06:48:33;8.23;;;7.67;;
18162;SDS011;9206;50.994;4.538;2024-02-26T06:54:19;8.43;;;7.93;;
18162;SDS011;9206;50.994;4.538;2024-02-26T06:59:58;7.53;;;7.13;;
18162;SDS011;9206;50.994;4.538;2024-02-26T07:02:48;8.93;;;8.43;;
18162;SDS011;9206;50.994;4.538;2024-02-26T07:05:39;9.17;;;8.33;;
18162;SDS011;9206;50.994;4.538;2024-02-26T07:08:29;9.13;;;8.30;;
18162;SDS011;9206;50.994;4.538;2024-02-26T07:11:18;9.10;;;8.60;;
18162;SDS011;9206;50.994;4.538;2024-02-26T07:14:09;8.43;;;7.93;;
18162;SDS011;9206;50.994;4.538;2024-02-26T07:16:57;8.43;;;7.83;;
18162;SDS011;9206;50.994;4.538;2024-02-26T07:19:46;8.70;;;8.20;;
18162;SDS011;9206;50.994;4.538;2024-02-26T07:22:36;8.43;;;8.03;;
18162;SDS011;9206;50.994;4.538;2024-02-26T07:25:26;8.83;;;8.23;;
18162;SDS011;9206;50.994;4.538;2024-02-26T07:28:18;8.47;;;7.83;;
18162;SDS011;9206;50.994;4.538;2024-02-26T07:31:06;8.90;;;8.37;;
18162;SDS011;9206;50.994;4.538;2024-02-26T07:33:58;7.23;;;6.83;;
18162;SDS011;9206;50.994;4.538;2024-02-26T07:36:48;7.47;;;7.07;;
18162;SDS011;9206;50.994;4.538;2024-02-26T07:39:35;7.90;;;7.37;;
18162;SDS011;9206;50.994;4.538;2024-02-26T07:42:23;7.80;;;7.17;;
18162;SDS011;9206;50.994;4.538;2024-02-26T07:45:12;8.03;;;7.43;;
18162;SDS011;9206;50.994;4.538;2024-02-26T07:48:04;7.30;;;6.90;;
18162;SDS011;9206;50.994;4.538;2024-02-26T07:50:52;7.53;;;6.93;;
18162;SDS011;9206;50.994;4.538;2024-02-26T07:53:40;7.47;;;7.07;;
18162;SDS011;9206;50.994;4.538;2024-02-26T07:56:33;7.13;;;6.73;;
18162;SDS011;9206;50.994;4.538;2024-02-26T07:59:21;7.87;;;7.47;;
18162;SDS011;9206;50.994;4.538;2024-02-26T08:05:01;6.97;;;6.67;;
18162;SDS011;9206;50.994;4.538;2024-02-26T08:07:53;7.37;;;6.80;;
18162;SDS011;9206;50.994;4.538;2024-02-26T08:10:42;7.33;;;6.93;;
18162;SDS011;9206;50.994;4.538;2024-02-26T08:13:29;7.13;;;6.73;;
18162;SDS011;9206;50.994;4.538;2024-02-26T08:16:16;6.87;;;6.40;;
18162;SDS011;9206;50.994;4.538;2024-02-26T08:24:48;7.43;;;6.83;;
18162;SDS011;9206;50.994;4.538;2024-02-26T08:27:35;6.50;;;6.20;;
18162;SDS011;9206;50.994;4.538;2024-02-26T08:30:24;6.80;;;6.30;;
18162;SDS011;9206;50.994;4.538;2024-02-26T08:33:11;7.50;;;7.00;;
18162;SDS011;9206;50.994;4.538;2024-02-26T08:36:02;6.70;;;6.30;;
18162;SDS011;9206;50.994;4.538;2024-02-26T08:38:52;6.30;;;6.00;;
18162;SDS011;9206;50.994;4.538;2024-02-26T08:41:42;6.17;;;5.87;;
18162;SDS011;9206;50.994;4.538;2024-02-26T08:44:31;6.00;;;5.70;;
18162;SDS011;9206;50.994;4.538;2024-02-26T08:47:18;6.50;;;6.20;;
18162;SDS011;9206;50.994;4.538;2024-02-26T08:50:05;6.60;;;6.30;;
18162;SDS011;9206;50.994;4.538;2024-02-26T08:52:59;6.87;;;6.50;;
18162;SDS011;9206;50.994;4.538;2024-02-26T08:55:46;6.77;;;6.37;;
18162;SDS011;9206;50.994;4.538;2024-02-26T08:58:34;7.37;;;6.97;;
18162;SDS011;9206;50.994;4.538;2024-02-26T09:01:22;7.57;;;7.13;;
18162;SDS011;9206;50.994;4.538;2024-02-26T09:07:00;7.63;;;6.87;;
18162;SDS011;9206;50.994;4.538;2024-02-26T09:09:51;8.03;;;7.53;;
18162;SDS011;9206;50.994;4.538;2024-02-26T09:12:39;8.30;;;7.60;;
18162;SDS011;9206;50.994;4.538;2024-02-26T09:15:27;7.33;;;6.90;;
18162;SDS011;9206;50.994;4.538;2024-02-26T09:18:16;7.40;;;6.90;;
18162;SDS011;9206;50.994;4.538;2024-02-26T09:21:04;7.83;;;7.40;;
18162;SDS011;9206;50.994;4.538;2024-02-26T09:23:51;7.50;;;7.07;;
18162;SDS011;9206;50.994;4.538;2024-02-26T09:26:40;8.20;;;7.43;;
18162;SDS011;9206;50.994;4.538;2024-02-26T09:35:19;7.57;;;7.17;;
18162;SDS011;9206;50.994;4.538;2024-02-26T09:38:23;7.70;;;7.30;;
18162;SDS011;9206;50.994;4.538;2024-02-26T09:41:13;7.90;;;7.10;;
18162;SDS011;9206;50.994;4.538;2024-02-26T09:44:12;7.13;;;6.73;;
18162;SDS011;9206;50.994;4.538;2024-02-26T09:47:24;7.67;;;7.03;;
18162;SDS011;9206;50.994;4.538;2024-02-26T09:50:16;7.80;;;7.20;;
18162;SDS011;9206;50.994;4.538;2024-02-26T09:53:08;8.23;;;7.60;;
18162;SDS011;9206;50.994;4.538;2024-02-26T09:55:56;7.37;;;6.97;;
18162;SDS011;9206;50.994;4.538;2024-02-26T09:58:45;7.77;;;7.27;;
18162;SDS011;9206;50.994;4.538;2024-02-26T10:01:40;6.87;;;6.47;;
18162;SDS011;9206;50.994;4.538;2024-02-26T10:04:31;7.00;;;6.60;;
18162;SDS011;9206;50.994;4.538;2024-02-26T10:07:22;7.37;;;6.97;;
18162;SDS011;9206;50.994;4.538;2024-02-26T10:10:10;6.77;;;6.37;;
18162;SDS011;9206;50.994;4.538;2024-02-26T10:13:03;6.43;;;5.93;;
18162;SDS011;9206;50.994;4.538;2024-02-26T10:15:56;6.87;;;6.50;;
18162;SDS011;9206;50.994;4.538;2024-02-26T10:18:48;6.13;;;5.73;;
18162;SDS011;9206;50.994;4.538;2024-02-26T10:21:37;6.20;;;5.80;;
18162;SDS011;9206;50.994;4.538;2024-02-26T10:24:25;5.73;;;5.33;;
18162;SDS011;9206;50.994;4.538;2024-02-26T10:27:13;5.90;;;5.50;;
18162;SDS011;9206;50.994;4.538;2024-02-26T10:30:05;7.80;;;5.50;;
18162;SDS011;9206;50.994;4.538;2024-02-26T10:33:05;5.23;;;5.00;;
18162;SDS011;9206;50.994;4.538;2024-02-26T10:35:55;4.90;;;4.70;;
18162;SDS011;9206;50.994;4.538;2024-02-26T10:41:32;6.13;;;4.40;;
18162;SDS011;9206;50.994;4.538;2024-02-26T10:44:23;5.23;;;5.03;;
18162;SDS011;9206;50.994;4.538;2024-02-26T10:47:12;4.80;;;4.40;;
18162;SDS011;9206;50.994;4.538;2024-02-26T10:50:01;4.30;;;4.10;;
18162;SDS011;9206;50.994;4.538;2024-02-26T10:52:54;4.57;;;4.30;;
18162;SDS011;9206;50.994;4.538;2024-02-26T10:55:46;4.20;;;3.90;;
18162;SDS011;9206;50.994;4.538;2024-02-26T10:58:41;3.90;;;3.70;;
18162;SDS011;9206;50.994;4.538;2024-02-26T11:01:31;3.40;;;3.30;;
18162;SDS011;9206;50.994;4.538;2024-02-26T11:04:25;3.53;;;3.33;;
18162;SDS011;9206;50.994;4.538;2024-02-26T11:07:18;3.73;;;3.40;;
18162;SDS011;9206;50.994;4.538;2024-02-26T11:13:00;3.00;;;2.80;;
18162;SDS011;9206;50.994;4.538;2024-02-26T11:15:49;3.07;;;2.97;;
18162;SDS011;9206;50.994;4.538;2024-02-26T11:18:38;3.13;;;3.03;;
18162;SDS011;9206;50.994;4.538;2024-02-26T11:21:31;3.53;;;3.43;;
18162;SDS011;9206;50.994;4.538;2024-02-26T11:27:17;3.90;;;3.70;;
18162;SDS011;9206;50.994;4.538;2024-02-26T11:30:10;4.30;;;4.00;;
18162;SDS011;9206;50.994;4.538;2024-02-26T11:33:00;4.23;;;4.03;;
18162;SDS011;9206;50.994;4.538;2024-02-26T11:38:40;12.63;;;4.73;;
18162;SDS011;9206;50.994;4.538;2024-02-26T11:41:30;4.43;;;4.23;;
18162;SDS011;9206;50.994;4.538;2024-02-26T11:44:29;4.70;;;4.40;;
18162;SDS011;9206;50.994;4.538;2024-02-26T11:47:17;5.10;;;4.90;;
18162;SDS011;9206;50.994;4.538;2024-02-26T11:53:26;5.10;;;4.80;;
18162;SDS011;9206;50.994;4.538;2024-02-26T11:56:24;4.83;;;4.60;;
18162;SDS011;9206;50.994;4.538;2024-02-26T11:59:14;4.90;;;4.70;;
18162;SDS011;9206;50.994;4.538;2024-02-26T12:02:50;5.37;;;5.07;;
18162;SDS011;9206;50.994;4.538;2024-02-26T12:14:16;5.07;;;4.77;;
18162;SDS011;9206;50.994;4.538;2024-02-26T12:17:15;4.77;;;4.57;;
18162;SDS011;9206;50.994;4.538;2024-02-26T12:23:07;4.83;;;4.53;;
18162;SDS011;9206;50.994;4.538;2024-02-26T12:25:58;4.97;;;4.67;;
18162;SDS011;9206;50.994;4.538;2024-02-26T12:28:47;4.90;;;4.60;;
18162;SDS011;9206;50.994;4.538;2024-02-26T12:31:39;5.20;;;4.90;;
18162;SDS011;9206;50.994;4.538;2024-02-26T12:34:31;5.73;;;5.43;;
18162;SDS011;9206;50.994;4.538;2024-02-26T12:37:19;5.80;;;5.40;;
18162;SDS011;9206;50.994;4.538;2024-02-26T12:40:07;5.40;;;5.10;;
18162;SDS011;9206;50.994;4.538;2024-02-26T12:43:01;5.73;;;5.43;;
18162;SDS011;9206;50.994;4.538;2024-02-26T12:51:33;6.57;;;6.17;;
18162;SDS011;9206;50.994;4.538;2024-02-26T12:54:20;5.70;;;5.40;;
18162;SDS011;9206;50.994;4.538;2024-02-26T12:59:58;6.97;;;6.40;;
18162;SDS011;9206;50.994;4.538;2024-02-26T13:02:49;6.47;;;6.07;;
18162;SDS011;9206;50.994;4.538;2024-02-26T13:05:37;5.90;;;5.60;;
18162;SDS011;9206;50.994;4.538;2024-02-26T13:11:19;6.20;;;5.90;;
18162;SDS011;9206;50.994;4.538;2024-02-26T13:14:06;6.70;;;6.30;;
18162;SDS011;9206;50.994;4.538;2024-02-26T13:16:56;6.97;;;6.47;;
18162;SDS011;9206;50.994;4.538;2024-02-26T13:22:41;6.57;;;6.07;;
18162;SDS011;9206;50.994;4.538;2024-02-26T13:25:30;6.70;;;6.30;;
18162;SDS011;9206;50.994;4.538;2024-02-26T13:28:18;6.43;;;6.13;;
18162;SDS011;9206;50.994;4.538;2024-02-26T13:31:05;6.77;;;6.37;;
18162;SDS011;9206;50.994;4.538;2024-02-26T13:33:53;6.80;;;6.30;;
18162;SDS011;9206;50.994;4.538;2024-02-26T13:36:40;7.30;;;6.80;;
18162;SDS011;9206;50.994;4.538;2024-02-26T13:39:27;7.17;;;6.57;;
18162;SDS011;9206;50.994;4.538;2024-02-26T13:45:16;7.23;;;6.80;;
18162;SDS011;9206;50.994;4.538;2024-02-26T13:48:03;7.10;;;6.60;;
18162;SDS011;9206;50.994;4.538;2024-02-26T13:50:51;7.50;;;6.90;;
18162;SDS011;9206;50.994;4.538;2024-02-26T13:53:39;7.53;;;6.93;;
18162;SDS011;9206;50.994;4.538;2024-02-26T13:56:26;8.27;;;7.57;;
18162;SDS011;9206;50.994;4.538;2024-02-26T13:59:19;7.70;;;7.20;;
18162;SDS011;9206;50.994;4.538;2024-02-26T14:02:07;7.97;;;7.33;;
18162;SDS011;9206;50.994;4.538;2024-02-26T14:07:49;8.57;;;7.87;;
18162;SDS011;9206;50.994;4.538;2024-02-26T14:10:36;8.10;;;7.40;;
18162;SDS011;9206;50.994;4.538;2024-02-26T14:13:26;7.57;;;7.07;;
18162;SDS011;9206;50.994;4.538;2024-02-26T14:16:16;8.47;;;7.87;;
18162;SDS011;9206;50.994;4.538;2024-02-26T14:19:08;8.67;;;7.87;;
18162;SDS011;9206;50.994;4.538;2024-02-26T14:21:58;8.00;;;7.40;;
18162;SDS011;9206;50.994;4.538;2024-02-26T14:24:45;8.53;;;7.73;;
18162;SDS011;9206;50.994;4.538;2024-02-26T14:27:33;7.27;;;6.80;;
18162;SDS011;9206;50.994;4.538;2024-02-26T14:30:24;8.57;;;7.87;;
18162;SDS011;9206;50.994;4.538;2024-02-26T14:33:14;8.33;;;7.63;;
18162;SDS011;9206;50.994;4.538;2024-02-26T14:36:05;8.63;;;7.83;;
18162;SDS011;9206;50.994;4.538;2024-02-26T14:38:56;8.00;;;7.30;;
18162;SDS011;9206;50.994;4.538;2024-02-26T14:41:50;7.80;;;7.20;;
18162;SDS011;9206;50.994;4.538;2024-02-26T14:44:37;7.03;;;6.53;;
18162;SDS011;9206;50.994;4.538;2024-02-26T14:55:58;6.80;;;6.30;;
18162;SDS011;9206;50.994;4.538;2024-02-26T14:58:49;6.33;;;5.93;;
18162;SDS011;9206;50.994;4.538;2024-02-26T15:01:36;6.30;;;5.77;;
18162;SDS011;9206;50.994;4.538;2024-02-26T15:04:23;6.80;;;6.30;;
18162;SDS011;9206;50.994;4.538;2024-02-26T15:07:12;6.73;;;6.30;;
18162;SDS011;9206;50.994;4.538;2024-02-26T15:09:59;6.50;;;6.03;;
18162;SDS011;9206;50.994;4.538;2024-02-26T15:12:46;6.20;;;5.77;;
18162;SDS011;9206;50.994;4.538;2024-02-26T15:15:35;5.80;;;5.40;;
18162;SDS011;9206;50.994;4.538;2024-02-26T15:21:12;5.30;;;5.00;;
18162;SDS011;9206;50.994;4.538;2024-02-26T15:24:02;5.50;;;5.10;;
18162;SDS011;9206;50.994;4.538;2024-02-26T15:26:51;5.13;;;4.83;;
18162;SDS011;9206;50.994;4.538;2024-02-26T15:29:38;4.80;;;4.50;;
18162;SDS011;9206;50.994;4.538;2024-02-26T15:32:25;4.67;;;4.37;;
18162;SDS011;9206;50.994;4.538;2024-02-26T15:38:03;5.03;;;4.73;;
18162;SDS011;9206;50.994;4.538;2024-02-26T15:40:52;4.63;;;4.33;;
18162;SDS011;9206;50.994;4.538;2024-02-26T15:43:40;5.03;;;4.70;;
18162;SDS011;9206;50.994;4.538;2024-02-26T15:46:28;5.00;;;4.70;;
18162;SDS011;9206;50.994;4.538;2024-02-26T15:49:18;4.60;;;4.30;;
18162;SDS011;9206;50.994;4.538;2024-02-26T15:52:08;5.10;;;4.80;;
18162;SDS011;9206;50.994;4.538;2024-02-26T15:54:56;5.93;;;5.33;;
18162;SDS011;9206;50.994;4.538;2024-02-26T15:57:44;4.50;;;4.30;;
18162;SDS011;9206;50.994;4.538;2024-02-26T16:00:33;4.17;;;3.97;;
18162;SDS011;9206;50.994;4.538;2024-02-26T16:03:20;4.90;;;4.50;;
18162;SDS011;9206;50.994;4.538;2024-02-26T16:06:14;4.90;;;4.60;;
18162;SDS011;9206;50.994;4.538;2024-02-26T16:09:08;4.90;;;4.50;;
18162;SDS011;9206;50.994;4.538;2024-02-26T16:11:56;5.20;;;4.90;;
18162;SDS011;9206;50.994;4.538;2024-02-26T16:14:49;5.20;;;4.90;;
18162;SDS011;9206;50.994;4.538;2024-02-26T16:17:40;5.07;;;4.77;;
18162;SDS011;9206;50.994;4.538;2024-02-26T16:20:34;5.27;;;4.97;;
18162;SDS011;9206;50.994;4.538;2024-02-26T16:23:23;5.20;;;4.80;;
18162;SDS011;9206;50.994;4.538;2024-02-26T16:26:10;5.73;;;5.33;;
18162;SDS011;9206;50.994;4.538;2024-02-26T16:28:58;5.43;;;5.10;;
18162;SDS011;9206;50.994;4.538;2024-02-26T16:31:47;5.00;;;4.70;;
18162;SDS011;9206;50.994;4.538;2024-02-26T16:34:37;5.70;;;5.30;;
18162;SDS011;9206;50.994;4.538;2024-02-26T16:37:24;5.37;;;4.97;;
18162;SDS011;9206;50.994;4.538;2024-02-26T16:40:12;5.90;;;5.57;;
18162;SDS011;9206;50.994;4.538;2024-02-26T16:43:01;6.80;;;6.30;;
18162;SDS011;9206;50.994;4.538;2024-02-26T16:45:51;6.50;;;6.10;;
18162;SDS011;9206;50.994;4.538;2024-02-26T16:48:39;7.27;;;6.63;;
18162;SDS011;9206;50.994;4.538;2024-02-26T16:54:20;8.37;;;7.57;;
18162;SDS011;9206;50.994;4.538;2024-02-26T16:57:09;7.87;;;7.27;;
18162;SDS011;9206;50.994;4.538;2024-02-26T16:59:58;8.13;;;7.53;;
18162;SDS011;9206;50.994;4.538;2024-02-26T17:02:46;9.67;;;8.77;;
18162;SDS011;9206;50.994;4.538;2024-02-26T17:05:35;10.73;;;9.73;;
18162;SDS011;9206;50.994;4.538;2024-02-26T17:08:24;9.70;;;8.80;;
18162;SDS011;9206;50.994;4.538;2024-02-26T17:11:14;8.73;;;8.03;;
18162;SDS011;9206;50.994;4.538;2024-02-26T17:14:03;9.70;;;8.80;;
18162;SDS011;9206;50.994;4.538;2024-02-26T17:16:51;9.53;;;8.47;;
18162;SDS011;9206;50.994;4.538;2024-02-26T17:19:38;11.30;;;8.67;;
18162;SDS011;9206;50.994;4.538;2024-02-26T17:22:32;9.83;;;8.93;;
18162;SDS011;9206;50.994;4.538;2024-02-26T17:25:19;13.13;;;9.70;;
18162;SDS011;9206;50.994;4.538;2024-02-26T17:28:06;9.57;;;8.67;;
18162;SDS011;9206;50.994;4.538;2024-02-26T17:31:00;9.60;;;8.70;;
18162;SDS011;9206;50.994;4.538;2024-02-26T17:33:48;9.40;;;8.57;;
18162;SDS011;9206;50.994;4.538;2024-02-26T17:36:36;10.30;;;9.13;;
18162;SDS011;9206;50.994;4.538;2024-02-26T17:39:25;9.70;;;8.90;;
18162;SDS011;9206;50.994;4.538;2024-02-26T17:42:15;9.33;;;8.43;;
18162;SDS011;9206;50.994;4.538;2024-02-26T17:45:03;10.10;;;9.10;;
18162;SDS011;9206;50.994;4.538;2024-02-26T17:47:51;10.57;;;9.67;;
18162;SDS011;9206;50.994;4.538;2024-02-26T17:50:41;10.23;;;9.33;;
18162;SDS011;9206;50.994;4.538;2024-02-26T17:53:29;10.63;;;9.63;;
18162;SDS011;9206;50.994;4.538;2024-02-26T17:56:20;10.83;;;9.90;;
18162;SDS011;9206;50.994;4.538;2024-02-26T17:59:07;10.73;;;9.83;;
18162;SDS011;9206;50.994;4.538;2024-02-26T18:01:55;11.37;;;10.10;;
18162;SDS011;9206;50.994;4.538;2024-02-26T18:04:47;11.73;;;10.63;;
18162;SDS011;9206;50.994;4.538;2024-02-26T18:07:34;10.73;;;9.93;;
18162;SDS011;9206;50.994;4.538;2024-02-26T18:10:27;11.27;;;10.17;;
18162;SDS011;9206;50.994;4.538;2024-02-26T18:13:16;10.80;;;9.80;;
18162;SDS011;9206;50.994;4.538;2024-02-26T18:16:06;11.23;;;10.20;;
18162;SDS011;9206;50.994;4.538;2024-02-26T18:18:53;11.60;;;10.50;;
18162;SDS011;9206;50.994;4.538;2024-02-26T18:21:40;11.87;;;10.70;;
18162;SDS011;9206;50.994;4.538;2024-02-26T18:24:27;11.57;;;10.47;;
18162;SDS011;9206;50.994;4.538;2024-02-26T18:27:14;10.33;;;9.23;;
18162;SDS011;9206;50.994;4.538;2024-02-26T18:30:04;10.20;;;9.23;;
18162;SDS011;9206;50.994;4.538;2024-02-26T18:32:53;10.03;;;9.03;;
18162;SDS011;9206;50.994;4.538;2024-02-26T18:35:40;10.23;;;9.20;;
18162;SDS011;9206;50.994;4.538;2024-02-26T18:38:30;9.63;;;8.73;;
18162;SDS011;9206;50.994;4.538;2024-02-26T18:41:18;9.33;;;8.43;;
18162;SDS011;9206;50.994;4.538;2024-02-26T18:44:06;9.33;;;8.47;;
18162;SDS011;9206;50.994;4.538;2024-02-26T18:46:54;8.53;;;7.73;;
18162;SDS011;9206;50.994;4.538;2024-02-26T18:49:41;8.43;;;7.83;;
18162;SDS011;9206;50.994;4.538;2024-02-26T18:52:29;8.90;;;8.20;;
18162;SDS011;9206;50.994;4.538;2024-02-26T18:55:17;9.27;;;8.43;;
18162;SDS011;9206;50.994;4.538;2024-02-26T18:58:04;9.00;;;8.23;;
18162;SDS011;9206;50.994;4.538;2024-02-26T19:00:51;9.10;;;8.40;;
18162;SDS011;9206;50.994;4.538;2024-02-26T19:03:39;8.93;;;8.13;;
18162;SDS011;9206;50.994;4.538;2024-02-26T19:06:27;9.17;;;8.43;;
18162;SDS011;9206;50.994;4.538;2024-02-26T19:09:15;8.73;;;7.90;;
18162;SDS011;9206;50.994;4.538;2024-02-26T19:12:02;8.43;;;7.73;;
18162;SDS011;9206;50.994;4.538;2024-02-26T19:14:49;8.43;;;7.63;;
18162;SDS011;9206;50.994;4.538;2024-02-26T19:17:37;8.30;;;7.60;;
18162;SDS011;9206;50.994;4.538;2024-02-26T19:20:25;8.43;;;7.73;;
18162;SDS011;9206;50.994;4.538;2024-02-26T19:23:14;8.27;;;7.67;;
18162;SDS011;9206;50.994;4.538;2024-02-26T19:26:01;9.97;;;8.97;;
18162;SDS011;9206;50.994;4.538;2024-02-26T19:28:49;9.50;;;8.70;;
18162;SDS011;9206;50.994;4.538;2024-02-26T19:31:36;8.57;;;7.87;;
18162;SDS011;9206;50.994;4.538;2024-02-26T19:34:23;8.87;;;8.27;;
18162;SDS011;9206;50.994;4.538;2024-02-26T19:37:12;9.47;;;8.53;;
18162;SDS011;9206;50.994;4.538;2024-02-26T19:39:59;9.13;;;8.40;;